createdAt,value
2022-07-25T00:02:20.127Z,22.57
2022-07-25T00:04:49.236Z,22.77
2022-07-25T00:07:17.377Z,22.59
2022-07-25T00:09:47.275Z,22.31
2022-07-25T00:12:15.291Z,22.32
2022-07-25T00:14:43.107Z,22.39
2022-07-25T00:17:11.039Z,22.46
2022-07-25T00:19:39.434Z,22.51
2022-07-25T00:22:07.445Z,22.68
2022-07-25T00:24:35.448Z,22.71
2022-07-25T00:27:04.881Z,22.43
2022-07-25T00:29:33.057Z,22.26
2022-07-25T00:32:01.272Z,22.20
2022-07-25T00:34:29.252Z,22.22
2022-07-25T00:36:59.421Z,22.29
2022-07-25T00:39:27.580Z,22.38
2022-07-25T00:41:55.699Z,22.40
2022-07-25T00:44:26.816Z,22.34
2022-07-25T00:46:55.247Z,22.30
2022-07-25T00:49:23.949Z,22.43
2022-07-25T00:51:53.049Z,22.48
2022-07-25T00:54:21.681Z,22.48
2022-07-25T00:56:51.083Z,22.49
2022-07-25T00:59:19.313Z,22.36
2022-07-25T01:01:50.073Z,22.35
2022-07-25T01:04:18.719Z,22.34
2022-07-25T01:06:47.030Z,22.11
2022-07-25T01:09:15.524Z,21.99
2022-07-25T01:11:44.193Z,21.79
2022-07-25T01:14:12.192Z,21.62
2022-07-25T01:16:41.216Z,21.69
2022-07-25T01:19:11.075Z,21.75
2022-07-25T01:21:42.508Z,21.73
2022-07-25T01:24:11.047Z,21.64
2022-07-25T01:26:39.306Z,21.63
2022-07-25T01:29:07.433Z,21.57
2022-07-25T01:31:35.425Z,21.49
2022-07-25T01:34:04.074Z,21.47
2022-07-25T01:36:32.194Z,21.47
2022-07-25T01:39:01.946Z,21.40
2022-07-25T01:41:29.726Z,21.48
2022-07-25T01:43:57.688Z,21.52
2022-07-25T01:46:25.444Z,21.58
2022-07-25T01:48:53.479Z,21.66
2022-07-25T01:51:21.384Z,21.58
2022-07-25T01:53:49.682Z,21.49
2022-07-25T01:56:21.861Z,21.37
2022-07-25T01:58:50.576Z,21.38
2022-07-25T02:01:19.462Z,21.38
2022-07-25T02:03:50.395Z,21.47
2022-07-25T02:06:20.531Z,21.45
2022-07-25T02:08:48.645Z,21.48
2022-07-25T02:11:19.274Z,21.43
2022-07-25T02:13:47.923Z,21.27
2022-07-25T02:16:16.030Z,21.15
2022-07-25T02:18:43.882Z,21.07
2022-07-25T02:21:14.203Z,21.15
2022-07-25T02:23:43.933Z,21.15
2022-07-25T02:26:11.900Z,21.17
2022-07-25T02:28:41.914Z,21.21
2022-07-25T02:31:10.148Z,21.19
2022-07-25T02:33:38.543Z,21.16
2022-07-25T02:36:06.896Z,21.09
2022-07-25T02:38:34.731Z,21.08
2022-07-25T02:41:02.826Z,20.92
2022-07-25T02:43:31.158Z,20.91
2022-07-25T02:46:00.420Z,20.88
2022-07-25T02:48:28.716Z,20.79
2022-07-25T02:50:56.642Z,20.74
2022-07-25T02:53:40.211Z,20.63
2022-07-25T02:56:13.567Z,20.66
2022-07-25T02:58:42.951Z,20.68
2022-07-25T03:01:12.424Z,20.71
2022-07-25T03:03:40.419Z,20.72
2022-07-25T03:06:08.756Z,20.77
2022-07-25T03:08:36.646Z,20.86
2022-07-25T03:11:05.091Z,20.85
2022-07-25T03:13:33.922Z,20.88
2022-07-25T03:16:02.088Z,20.88
2022-07-25T03:18:31.280Z,20.84
2022-07-25T03:20:59.050Z,20.75
2022-07-25T03:23:28.446Z,20.62
2022-07-25T03:25:57.020Z,20.57
2022-07-25T03:28:25.664Z,20.17
2022-07-25T03:30:53.955Z,20.07
2022-07-25T03:33:22.186Z,19.48
2022-07-25T03:35:51.328Z,19.19
2022-07-25T03:38:19.954Z,19.15
2022-07-25T03:40:48.010Z,18.95
2022-07-25T03:43:16.203Z,18.96
2022-07-25T03:45:44.287Z,19.04
2022-07-25T03:48:12.213Z,19.46
2022-07-25T03:50:40.353Z,19.63
2022-07-25T03:53:10.275Z,19.37
2022-07-25T03:55:39.650Z,19.04
2022-07-25T03:58:08.241Z,19.11
2022-07-25T04:00:36.452Z,19.24
2022-07-25T04:03:05.396Z,19.58
2022-07-25T04:05:33.351Z,19.84
2022-07-25T04:08:01.934Z,20.10
2022-07-25T04:10:31.081Z,20.36
2022-07-25T04:12:59.026Z,20.48
2022-07-25T04:15:27.209Z,20.40
2022-07-25T04:17:55.965Z,20.74
2022-07-25T04:20:23.818Z,21.09
2022-07-25T04:22:53.081Z,21.36
2022-07-25T04:25:21.179Z,21.56
2022-07-25T04:27:50.433Z,21.83
2022-07-25T04:30:24.341Z,22.13
2022-07-25T04:32:53.468Z,22.40
2022-07-25T04:35:21.860Z,22.66
2022-07-25T04:37:49.829Z,22.51
2022-07-25T04:40:17.785Z,22.36
2022-07-25T04:42:47.401Z,22.81
2022-07-25T04:45:17.590Z,23.30
2022-07-25T04:47:46.093Z,23.80
2022-07-25T04:50:14.093Z,24.17
2022-07-25T04:52:42.276Z,24.26
2022-07-25T04:55:10.940Z,24.55
2022-07-25T04:57:39.722Z,24.83
2022-07-25T05:00:10.884Z,25.23
2022-07-25T05:02:40.320Z,25.60
2022-07-25T05:05:20.941Z,25.75
2022-07-25T05:07:50.084Z,25.89
2022-07-25T05:10:17.953Z,26.13
2022-07-25T05:12:46.167Z,26.26
2022-07-25T05:15:14.491Z,26.27
2022-07-25T05:17:44.435Z,26.48
2022-07-25T05:20:13.164Z,26.85
2022-07-25T05:22:42.578Z,26.91
2022-07-25T05:25:11.942Z,26.91
2022-07-25T05:27:41.210Z,26.85
2022-07-25T05:30:11.848Z,27.18
2022-07-25T05:32:40.336Z,27.55
2022-07-25T05:35:10.897Z,27.63
2022-07-25T05:37:39.771Z,27.65
2022-07-25T05:40:09.035Z,27.97
2022-07-25T05:42:37.242Z,28.19
2022-07-25T05:45:06.069Z,28.61
2022-07-25T05:47:34.242Z,28.83
2022-07-25T05:50:03.350Z,28.73
2022-07-25T05:52:32.531Z,28.71
2022-07-25T05:55:00.410Z,29.01
2022-07-25T05:57:28.731Z,29.19
2022-07-25T05:59:56.951Z,29.51
2022-07-25T06:02:25.183Z,29.64
2022-07-25T06:04:53.146Z,29.44
2022-07-25T06:07:20.941Z,29.72
2022-07-25T06:09:50.186Z,30.18
2022-07-25T06:12:18.163Z,30.05
2022-07-25T06:14:46.282Z,30.44
2022-07-25T06:17:14.418Z,30.63
2022-07-25T06:19:42.345Z,29.02
2022-07-25T06:22:11.274Z,28.77
2022-07-25T06:24:39.554Z,29.77
2022-07-25T06:27:09.378Z,30.63
2022-07-25T06:29:39.004Z,30.16
2022-07-25T06:32:07.360Z,29.68
2022-07-25T06:34:35.160Z,29.92
2022-07-25T06:37:03.228Z,29.97
2022-07-25T06:39:31.382Z,27.97
2022-07-25T06:41:59.798Z,28.08
2022-07-25T06:44:36.542Z,28.33
2022-07-25T06:47:05.727Z,29.37
2022-07-25T06:49:33.725Z,27.32
2022-07-25T06:52:01.387Z,27.25
2022-07-25T06:54:29.231Z,28.87
2022-07-25T06:57:00.422Z,29.26
2022-07-25T06:59:28.352Z,29.24
2022-07-25T07:01:57.420Z,30.48
2022-07-25T07:04:25.818Z,30.77
2022-07-25T07:06:53.634Z,31.80
2022-07-25T07:09:21.580Z,32.74
2022-07-25T07:11:49.349Z,33.20
2022-07-25T07:14:17.522Z,33.68
2022-07-25T07:16:45.589Z,33.86
2022-07-25T07:19:15.566Z,33.82
2022-07-25T07:21:44.127Z,34.10
2022-07-25T07:24:23.487Z,33.15
2022-07-25T07:26:53.393Z,33.36
2022-07-25T07:29:26.834Z,30.76
2022-07-25T07:31:55.492Z,32.20
2022-07-25T07:34:24.829Z,33.25
2022-07-25T07:36:53.615Z,34.33
2022-07-25T07:39:21.686Z,35.27
2022-07-25T07:41:49.600Z,36.17
2022-07-25T07:44:17.952Z,36.48
2022-07-25T07:46:45.866Z,36.47
2022-07-25T07:49:14.024Z,35.83
2022-07-25T07:51:43.313Z,35.46
2022-07-25T07:54:28.510Z,35.60
2022-07-25T07:56:56.781Z,36.36
2022-07-25T07:59:24.531Z,36.79
2022-07-25T08:01:52.516Z,37.13
2022-07-25T08:04:20.324Z,38.05
2022-07-25T08:06:49.850Z,38.91
2022-07-25T08:09:17.705Z,37.89
2022-07-25T08:11:45.551Z,37.33
2022-07-25T08:14:13.523Z,38.01
2022-07-25T08:16:41.321Z,38.95
2022-07-25T08:19:09.237Z,39.23
2022-07-25T08:21:37.036Z,39.43
2022-07-25T08:24:07.949Z,39.37
2022-07-25T08:26:37.111Z,39.54
2022-07-25T08:29:18.631Z,39.91
2022-07-25T08:31:47.762Z,40.55
2022-07-25T08:34:15.769Z,39.93
2022-07-25T08:36:43.859Z,40.34
2022-07-25T08:39:13.467Z,41.36
2022-07-25T08:41:42.437Z,41.48
2022-07-25T08:44:10.703Z,41.66
2022-07-25T08:46:41.531Z,38.99
2022-07-25T08:49:10.565Z,39.17
2022-07-25T08:51:40.802Z,40.13
2022-07-25T08:54:09.530Z,41.34
2022-07-25T08:56:39.424Z,40.61
2022-07-25T08:59:07.216Z,40.78
2022-07-25T09:01:35.611Z,38.29
2022-07-25T09:04:05.586Z,39.45
2022-07-25T09:06:33.983Z,39.74
2022-07-25T09:09:04.946Z,39.44
2022-07-25T09:11:35.252Z,40.51
2022-07-25T09:14:09.149Z,41.02
2022-07-25T09:16:40.347Z,41.00
2022-07-25T09:19:14.332Z,38.75
2022-07-25T09:21:45.505Z,38.13
2022-07-25T09:24:16.885Z,37.87
2022-07-25T09:26:50.482Z,37.76
2022-07-25T09:29:22.842Z,38.84
2022-07-25T09:31:50.963Z,38.53
2022-07-25T09:34:31.904Z,38.51
2022-07-25T09:36:59.828Z,39.29
2022-07-25T09:39:35.485Z,39.65
2022-07-25T09:42:04.650Z,40.28
2022-07-25T09:44:33.925Z,40.53
2022-07-25T09:47:11.848Z,40.98
2022-07-25T09:49:44.361Z,40.38
2022-07-25T09:52:13.126Z,40.44
2022-07-25T09:54:41.415Z,40.84
2022-07-25T09:57:09.225Z,41.58
2022-07-25T09:59:39.579Z,41.51
2022-07-25T10:02:10.673Z,41.92
2022-07-25T10:04:46.276Z,41.94
2022-07-25T10:07:17.689Z,42.30
2022-07-25T10:09:47.616Z,42.64
2022-07-25T10:12:20.748Z,41.23
2022-07-25T10:15:09.548Z,41.09
2022-07-25T10:17:39.382Z,40.28
2022-07-25T10:20:10.099Z,40.66
2022-07-25T10:22:55.873Z,42.28
2022-07-25T10:25:25.365Z,42.69
2022-07-25T10:28:00.900Z,42.75
2022-07-25T10:30:36.576Z,43.66
2022-07-25T10:33:06.596Z,44.45
2022-07-25T10:35:34.719Z,44.78
2022-07-25T10:38:05.992Z,45.63
2022-07-25T10:40:36.783Z,45.90
2022-07-25T10:43:25.610Z,45.79
2022-07-25T10:45:57.827Z,45.07
2022-07-25T10:48:26.558Z,44.56
2022-07-25T10:50:58.921Z,44.96
2022-07-25T10:53:33.348Z,44.53
2022-07-25T10:56:06.886Z,44.54
2022-07-25T10:58:46.700Z,44.78
2022-07-25T11:01:20.684Z,44.07
2022-07-25T11:03:49.020Z,44.25
2022-07-25T11:06:18.796Z,44.20
2022-07-25T11:08:46.967Z,43.27
2022-07-25T11:11:15.208Z,43.28
2022-07-25T11:13:44.365Z,43.28
2022-07-25T11:16:12.990Z,43.02
2022-07-25T11:18:43.167Z,42.04
2022-07-25T11:21:11.483Z,41.32
2022-07-25T11:23:41.851Z,40.56
2022-07-25T11:26:12.199Z,41.73
2022-07-25T11:28:41.931Z,42.25
2022-07-25T11:31:10.917Z,42.21
2022-07-25T11:33:40.119Z,42.98
2022-07-25T11:36:11.707Z,45.34
2022-07-25T11:38:40.752Z,46.63
2022-07-25T11:41:09.115Z,44.45
2022-07-25T11:43:36.824Z,40.26
2022-07-25T11:46:07.176Z,40.60
2022-07-25T11:48:37.923Z,41.53
2022-07-25T11:51:19.614Z,40.99
2022-07-25T11:53:51.517Z,40.96
2022-07-25T11:59:12.623Z,39.90
2022-07-25T12:01:42.961Z,39.29
2022-07-25T12:04:12.884Z,39.43
2022-07-25T12:06:43.822Z,39.68
2022-07-25T12:09:18.540Z,40.22
2022-07-25T12:11:48.435Z,43.47
2022-07-25T12:14:17.000Z,46.47
2022-07-25T12:16:48.141Z,46.21
2022-07-25T12:19:20.538Z,46.55
2022-07-25T12:21:50.151Z,43.51
2022-07-25T12:24:17.999Z,45.85
2022-07-25T12:26:46.180Z,46.64
2022-07-25T12:29:14.315Z,43.82
2022-07-25T12:31:42.222Z,45.06
2022-07-25T12:34:10.537Z,44.83
2022-07-25T12:36:44.259Z,45.68
2022-07-25T12:39:14.252Z,43.55
2022-07-25T12:41:45.492Z,43.69
2022-07-25T12:44:13.379Z,41.93
2022-07-25T12:46:49.312Z,40.37
2022-07-25T12:49:18.354Z,38.83
2022-07-25T12:51:47.076Z,38.68
2022-07-25T12:54:22.231Z,37.96
2022-07-25T12:56:51.904Z,37.91
2022-07-25T12:59:19.850Z,37.74
2022-07-25T13:01:50.534Z,37.84
2022-07-25T13:04:20.270Z,37.65
2022-07-25T13:06:48.261Z,38.46
2022-07-25T13:09:18.042Z,40.63
2022-07-25T13:11:47.791Z,41.16
2022-07-25T13:14:16.953Z,42.43
2022-07-25T13:16:45.542Z,43.44
2022-07-25T13:19:15.207Z,42.12
2022-07-25T13:21:43.935Z,42.14
2022-07-25T13:24:13.074Z,41.27
2022-07-25T13:26:42.920Z,40.13
2022-07-25T13:29:12.418Z,39.99
2022-07-25T13:31:42.303Z,40.74
2022-07-25T13:34:11.076Z,39.77
2022-07-25T13:36:40.277Z,39.17
2022-07-25T13:39:09.290Z,39.16
2022-07-25T13:41:37.509Z,38.58
2022-07-25T13:44:07.581Z,38.39
2022-07-25T13:46:36.305Z,38.76
2022-07-25T13:49:06.020Z,39.44
2022-07-25T13:51:34.296Z,39.81
2022-07-25T13:54:03.185Z,39.59
2022-07-25T13:56:32.522Z,39.00
2022-07-25T13:59:00.922Z,38.81
2022-07-25T14:01:31.203Z,36.73
2022-07-25T14:03:59.489Z,34.74
2022-07-25T14:06:28.002Z,35.15
2022-07-25T14:08:55.746Z,35.09
2022-07-25T14:11:27.350Z,34.18
2022-07-25T14:13:58.300Z,33.94
2022-07-25T14:16:26.654Z,33.53
2022-07-25T14:18:58.317Z,29.89
2022-07-25T14:21:26.806Z,24.47
2022-07-25T14:23:55.208Z,24.09
2022-07-25T14:26:23.736Z,24.59
2022-07-25T14:28:51.703Z,25.03
2022-07-25T14:31:19.667Z,25.43
2022-07-25T14:33:48.373Z,28.12
2022-07-25T14:36:18.127Z,30.81
2022-07-25T14:38:48.271Z,32.63
2022-07-25T14:41:16.632Z,33.79
2022-07-25T14:43:45.765Z,33.64
2022-07-25T14:46:14.322Z,36.48
2022-07-25T14:48:43.055Z,41.03
2022-07-25T14:51:11.280Z,45.79
2022-07-25T14:53:41.271Z,49.22
2022-07-25T14:56:09.712Z,51.15
2022-07-25T14:58:38.273Z,52.03
2022-07-25T15:01:07.166Z,51.78
2022-07-25T15:03:36.630Z,51.53
2022-07-25T15:06:07.229Z,50.68
2022-07-25T15:08:35.698Z,49.59
2022-07-25T15:11:05.307Z,47.42
2022-07-25T15:13:33.704Z,44.75
2022-07-25T15:16:03.354Z,44.26
2022-07-25T15:18:32.172Z,44.02
2022-07-25T15:21:00.863Z,44.39
2022-07-25T15:23:30.607Z,44.46
2022-07-25T15:26:02.803Z,45.91
2022-07-25T15:28:33.559Z,43.57
2022-07-25T15:31:02.252Z,42.69
2022-07-25T15:33:30.316Z,40.29
2022-07-25T15:35:58.844Z,40.23
2022-07-25T15:38:28.851Z,38.70
2022-07-25T15:40:57.705Z,37.82
2022-07-25T15:43:26.137Z,38.49
2022-07-25T15:45:55.481Z,37.98
2022-07-25T15:48:23.696Z,38.68
2022-07-25T15:50:52.567Z,39.68
2022-07-25T15:53:21.002Z,39.34
2022-07-25T15:55:49.414Z,39.38
2022-07-25T15:58:17.246Z,40.48
2022-07-25T16:00:45.610Z,38.53
2022-07-25T16:03:15.236Z,36.41
2022-07-25T16:05:45.599Z,34.31
2022-07-25T16:08:13.484Z,33.82
2022-07-25T16:10:41.823Z,33.68
2022-07-25T16:13:10.026Z,33.28
2022-07-25T16:15:38.129Z,33.13
2022-07-25T16:18:07.338Z,33.19
2022-07-25T16:20:39.784Z,33.27
2022-07-25T16:23:07.762Z,33.75
2022-07-25T16:25:35.564Z,33.50
2022-07-25T16:28:03.504Z,32.60
2022-07-25T16:30:31.636Z,32.58
2022-07-25T16:32:59.535Z,32.57
2022-07-25T16:35:27.854Z,33.21
2022-07-25T16:37:57.052Z,33.16
2022-07-25T16:40:30.214Z,32.58
2022-07-25T16:42:59.730Z,32.95
2022-07-25T16:45:28.734Z,33.16
2022-07-25T16:47:56.909Z,32.54
2022-07-25T16:50:25.252Z,32.66
2022-07-25T16:52:53.686Z,32.54
2022-07-25T16:55:23.496Z,32.59
2022-07-25T16:57:51.946Z,32.54
2022-07-25T17:00:21.106Z,33.00
2022-07-25T17:02:49.901Z,32.84
2022-07-25T17:05:18.440Z,32.84
2022-07-25T17:07:48.926Z,32.55
2022-07-25T17:10:17.187Z,32.76
2022-07-25T17:12:46.458Z,32.71
2022-07-25T17:15:14.258Z,32.53
2022-07-25T17:17:42.616Z,32.10
2022-07-25T17:20:11.255Z,31.87
2022-07-25T17:22:39.668Z,31.69
2022-07-25T17:25:08.434Z,31.37
2022-07-25T17:27:37.597Z,31.57
2022-07-25T17:30:08.640Z,31.47
2022-07-25T17:32:36.616Z,31.12
2022-07-25T17:35:05.287Z,31.08
2022-07-25T17:37:33.250Z,30.73
2022-07-25T17:40:01.427Z,30.53
2022-07-25T17:42:29.606Z,30.54
2022-07-25T17:44:57.846Z,30.82
2022-07-25T17:47:27.335Z,31.28
2022-07-25T17:49:55.322Z,30.69
2022-07-25T17:52:23.392Z,30.73
2022-07-25T17:54:51.299Z,30.39
2022-07-25T17:57:19.399Z,30.38
2022-07-25T17:59:47.955Z,30.75
2022-07-25T18:02:16.612Z,30.26
2022-07-25T18:04:46.398Z,29.91
2022-07-25T18:07:14.374Z,29.91
2022-07-25T18:09:43.082Z,29.76
2022-07-25T18:12:10.926Z,29.57
2022-07-25T18:14:39.248Z,29.36
2022-07-25T18:17:07.527Z,29.40
2022-07-25T18:19:35.992Z,29.42
2022-07-25T18:22:06.238Z,29.18
2022-07-25T18:24:34.188Z,29.19
2022-07-25T18:27:02.613Z,28.96
2022-07-25T18:29:32.499Z,28.79
2022-07-25T18:32:03.044Z,28.67
2022-07-25T18:34:31.535Z,28.61
2022-07-25T18:37:00.525Z,28.52
2022-07-25T18:39:30.161Z,28.37
2022-07-25T18:41:58.101Z,28.26
2022-07-25T18:44:26.355Z,28.20
2022-07-25T18:46:54.211Z,28.07
2022-07-25T18:49:23.013Z,27.92
2022-07-25T18:51:51.258Z,27.85
2022-07-25T18:54:19.521Z,27.79
2022-07-25T18:56:49.217Z,27.67
2022-07-25T18:59:17.274Z,27.60
2022-07-25T19:01:45.323Z,27.54
2022-07-25T19:04:13.347Z,27.47
2022-07-25T19:06:43.858Z,27.28
2022-07-25T19:09:12.164Z,27.21
2022-07-25T19:11:42.463Z,27.07
2022-07-25T19:14:13.021Z,26.98
2022-07-25T19:16:41.302Z,26.98
2022-07-25T19:19:09.883Z,26.84
2022-07-25T19:21:42.736Z,26.71
2022-07-25T19:24:11.595Z,26.58
2022-07-25T19:26:40.311Z,26.43
2022-07-25T19:29:11.164Z,26.48
2022-07-25T19:31:41.682Z,26.41
2022-07-25T19:34:10.333Z,26.37
2022-07-25T19:36:38.980Z,26.29
2022-07-25T19:39:07.460Z,26.23
2022-07-25T19:41:35.892Z,26.15
2022-07-25T19:44:05.991Z,26.15
2022-07-25T19:46:34.428Z,26.06
2022-07-25T19:49:05.438Z,25.95
2022-07-25T19:51:34.151Z,25.85
2022-07-25T19:54:03.549Z,25.83
2022-07-25T19:56:31.653Z,25.80
2022-07-25T19:58:59.998Z,25.85
2022-07-25T20:01:29.319Z,25.81
2022-07-25T20:03:57.666Z,25.79
2022-07-25T20:06:27.400Z,25.72
2022-07-25T20:08:55.319Z,25.74
2022-07-25T20:11:23.378Z,25.72
2022-07-25T20:13:51.273Z,25.68
2022-07-25T20:16:19.243Z,25.66
2022-07-25T20:18:47.440Z,25.51
2022-07-25T20:21:17.885Z,25.36
2022-07-25T20:23:47.641Z,25.33
2022-07-25T20:26:15.620Z,25.22
2022-07-25T20:28:43.767Z,25.13
2022-07-25T20:31:11.853Z,25.13
2022-07-25T20:33:39.876Z,25.13
2022-07-25T20:36:08.475Z,25.02
2022-07-25T20:38:36.641Z,24.91
2022-07-25T20:41:06.266Z,24.89
2022-07-25T20:43:34.562Z,24.83
2022-07-25T20:46:06.066Z,24.76
2022-07-25T20:48:37.490Z,24.78
2022-07-25T20:51:05.797Z,24.76
2022-07-25T20:53:34.016Z,24.79
2022-07-25T20:56:02.650Z,24.75
2022-07-25T20:58:32.698Z,24.77
2022-07-25T21:01:00.952Z,24.72
2022-07-25T21:03:29.006Z,24.76
2022-07-25T21:05:57.135Z,24.72
2022-07-25T21:08:25.096Z,24.68
2022-07-25T21:10:53.207Z,24.63
2022-07-25T21:13:21.168Z,24.57
2022-07-25T21:15:50.676Z,24.54
2022-07-25T21:18:20.012Z,24.49
2022-07-25T21:20:48.053Z,24.44
2022-07-25T21:23:17.759Z,24.46
2022-07-25T21:25:45.707Z,24.37
2022-07-25T21:28:14.348Z,24.44
2022-07-25T21:30:42.977Z,24.34
2022-07-25T21:33:14.869Z,24.21
2022-07-25T21:35:50.004Z,24.16
2022-07-25T21:38:26.968Z,24.07
2022-07-25T21:40:57.212Z,24.06
2022-07-25T21:43:25.247Z,24.00
2022-07-25T21:45:53.505Z,23.96
2022-07-25T21:48:44.167Z,23.86
2022-07-25T21:51:19.282Z,23.91
2022-07-25T21:53:51.812Z,23.92
2022-07-25T21:56:20.121Z,23.87
2022-07-25T21:58:49.038Z,23.91
2022-07-25T22:01:17.482Z,24.02
2022-07-25T22:03:47.173Z,23.94
2022-07-25T22:06:15.089Z,23.85
2022-07-25T22:08:43.570Z,23.87
2022-07-25T22:11:20.823Z,23.87
2022-07-25T22:13:59.473Z,23.88
2022-07-25T22:16:27.515Z,23.76
2022-07-25T22:18:57.281Z,23.52
2022-07-25T22:21:25.551Z,23.24
2022-07-25T22:23:53.692Z,22.97
2022-07-25T22:26:21.821Z,22.87
2022-07-25T22:28:50.759Z,22.78
2022-07-25T22:31:18.850Z,22.77
2022-07-25T22:33:47.225Z,22.74
2022-07-25T22:36:16.660Z,22.76
2022-07-25T22:38:45.005Z,22.81
2022-07-25T22:41:13.018Z,22.80
2022-07-25T22:43:57.408Z,22.79
2022-07-25T22:46:27.659Z,23.02
2022-07-25T22:48:55.635Z,23.01
2022-07-25T22:51:26.590Z,22.98
2022-07-25T22:53:55.066Z,22.90
2022-07-25T22:56:23.614Z,22.78
2022-07-25T22:58:51.565Z,22.63
2022-07-25T23:01:20.268Z,22.61
2022-07-25T23:03:50.171Z,22.66
2022-07-25T23:06:18.914Z,22.58
2022-07-25T23:08:49.015Z,22.53
2022-07-25T23:11:17.121Z,22.51
2022-07-25T23:13:44.958Z,22.47
2022-07-25T23:16:12.878Z,22.40
2022-07-25T23:18:40.803Z,22.37
2022-07-25T23:21:09.362Z,22.38
2022-07-25T23:23:37.731Z,22.36
2022-07-25T23:26:06.807Z,22.39
2022-07-25T23:28:34.868Z,22.44
2022-07-25T23:31:02.763Z,22.43
2022-07-25T23:33:30.593Z,22.35
2022-07-25T23:35:58.863Z,22.20
2022-07-25T23:38:26.910Z,22.14
2022-07-25T23:40:55.244Z,22.00
2022-07-25T23:43:56.136Z,21.91
2022-07-25T23:46:15.666Z,21.75
2022-07-25T23:48:46.136Z,21.68
2022-07-25T23:51:13.966Z,21.72
2022-07-25T23:53:42.148Z,21.65
2022-07-25T23:56:10.244Z,21.68
2022-07-25T23:58:39.801Z,21.61
